sensor_id;sensor_type;location;lat;lon;timestamp;P1;durP1;ratioP1;P2;durP2;ratioP2
52798;SDS011;38667;42.872;74.622;2022-09-12T00:00:13;35.47;;;7.07;;
52798;SDS011;38667;42.872;74.622;2022-09-12T00:02:40;45.50;;;7.32;;
52798;SDS011;38667;42.872;74.622;2022-09-12T00:05:06;44.72;;;7.60;;
52798;SDS011;38667;42.872;74.622;2022-09-12T00:07:34;51.50;;;7.97;;
52798;SDS011;38667;42.872;74.622;2022-09-12T00:10:01;45.92;;;7.45;;
52798;SDS011;38667;42.872;74.622;2022-09-12T00:12:27;47.00;;;7.40;;
52798;SDS011;38667;42.872;74.622;2022-09-12T00:14:54;49.30;;;6.30;;
52798;SDS011;38667;42.872;74.622;2022-09-12T00:17:20;54.40;;;6.57;;
52798;SDS011;38667;42.872;74.622;2022-09-12T00:19:46;49.08;;;7.00;;
52798;SDS011;38667;42.872;74.622;2022-09-12T00:22:13;40.08;;;6.97;;
52798;SDS011;38667;42.872;74.622;2022-09-12T00:24:40;45.50;;;6.43;;
52798;SDS011;38667;42.872;74.622;2022-09-12T00:27:07;35.50;;;6.30;;
52798;SDS011;38667;42.872;74.622;2022-09-12T00:29:33;45.72;;;7.15;;
52798;SDS011;38667;42.872;74.622;2022-09-12T00:32:00;44.17;;;6.72;;
52798;SDS011;38667;42.872;74.622;2022-09-12T00:34:26;49.80;;;6.43;;
52798;SDS011;38667;42.872;74.622;2022-09-12T00:36:53;51.20;;;7.47;;
52798;SDS011;38667;42.872;74.622;2022-09-12T00:39:19;49.22;;;7.43;;
52798;SDS011;38667;42.872;74.622;2022-09-12T00:41:47;48.45;;;7.28;;
52798;SDS011;38667;42.872;74.622;2022-09-12T00:47:15;41.22;;;6.82;;
52798;SDS011;38667;42.872;74.622;2022-09-12T00:49:48;42.70;;;6.65;;
52798;SDS011;38667;42.872;74.622;2022-09-12T00:52:20;48.53;;;6.65;;
52798;SDS011;38667;42.872;74.622;2022-09-12T00:54:50;45.35;;;6.35;;
52798;SDS011;38667;42.872;74.622;2022-09-12T00:57:25;41.60;;;6.30;;
52798;SDS011;38667;42.872;74.622;2022-09-12T00:59:56;46.63;;;6.32;;
52798;SDS011;38667;42.872;74.622;2022-09-12T01:02:23;39.70;;;5.57;;
52798;SDS011;38667;42.872;74.622;2022-09-12T01:04:50;40.63;;;5.32;;
52798;SDS011;38667;42.872;74.622;2022-09-12T01:07:17;45.40;;;5.80;;
52798;SDS011;38667;42.872;74.622;2022-09-12T01:09:45;40.65;;;5.90;;
52798;SDS011;38667;42.872;74.622;2022-09-12T01:12:12;30.33;;;5.72;;
52798;SDS011;38667;42.872;74.622;2022-09-12T01:14:41;37.28;;;6.10;;
52798;SDS011;38667;42.872;74.622;2022-09-12T01:17:10;40.13;;;5.68;;
52798;SDS011;38667;42.872;74.622;2022-09-12T01:25:57;73.70;;;11.98;;
52798;SDS011;38667;42.872;74.622;2022-09-12T01:28:37;56.50;;;8.75;;
52798;SDS011;38667;42.872;74.622;2022-09-12T01:31:21;47.53;;;6.95;;
52798;SDS011;38667;42.872;74.622;2022-09-12T01:33:56;43.38;;;5.32;;
52798;SDS011;38667;42.872;74.622;2022-09-12T01:36:33;40.88;;;6.22;;
52798;SDS011;38667;42.872;74.622;2022-09-12T01:39:11;47.25;;;5.28;;
52798;SDS011;38667;42.872;74.622;2022-09-12T01:41:42;52.08;;;5.50;;
52798;SDS011;38667;42.872;74.622;2022-09-12T01:44:19;48.83;;;5.97;;
52798;SDS011;38667;42.872;74.622;2022-09-12T01:46:52;42.80;;;7.25;;
52798;SDS011;38667;42.872;74.622;2022-09-12T01:49:24;44.70;;;7.47;;
52798;SDS011;38667;42.872;74.622;2022-09-12T01:51:56;44.20;;;7.15;;
52798;SDS011;38667;42.872;74.622;2022-09-12T01:54:30;40.95;;;7.25;;
52798;SDS011;38667;42.872;74.622;2022-09-12T01:57:03;36.78;;;6.18;;
52798;SDS011;38667;42.872;74.622;2022-09-12T01:59:36;50.15;;;6.40;;
52798;SDS011;38667;42.872;74.622;2022-09-12T02:05:03;37.20;;;6.03;;
52798;SDS011;38667;42.872;74.622;2022-09-12T02:07:39;39.15;;;6.43;;
52798;SDS011;38667;42.872;74.622;2022-09-12T02:10:11;35.50;;;7.60;;
52798;SDS011;38667;42.872;74.622;2022-09-12T02:12:40;34.55;;;6.10;;
52798;SDS011;38667;42.872;74.622;2022-09-12T02:15:09;26.08;;;5.13;;
52798;SDS011;38667;42.872;74.622;2022-09-12T02:17:40;45.92;;;6.18;;
52798;SDS011;38667;42.872;74.622;2022-09-12T02:20:09;28.60;;;4.03;;
52798;SDS011;38667;42.872;74.622;2022-09-12T02:22:41;38.50;;;5.00;;
52798;SDS011;38667;42.872;74.622;2022-09-12T02:25:09;36.05;;;4.95;;
52798;SDS011;38667;42.872;74.622;2022-09-12T02:27:39;18.23;;;5.03;;
52798;SDS011;38667;42.872;74.622;2022-09-12T02:30:09;27.42;;;5.07;;
52798;SDS011;38667;42.872;74.622;2022-09-12T02:32:36;25.25;;;4.10;;
52798;SDS011;38667;42.872;74.622;2022-09-12T02:35:08;31.10;;;4.90;;
52798;SDS011;38667;42.872;74.622;2022-09-12T02:37:49;30.13;;;4.97;;
52798;SDS011;38667;42.872;74.622;2022-09-12T02:40:23;35.05;;;4.97;;
52798;SDS011;38667;42.872;74.622;2022-09-12T02:42:50;37.65;;;5.03;;
52798;SDS011;38667;42.872;74.622;2022-09-12T02:45:16;37.17;;;5.78;;
52798;SDS011;38667;42.872;74.622;2022-09-12T02:47:44;24.60;;;4.10;;
52798;SDS011;38667;42.872;74.622;2022-09-12T02:50:15;32.97;;;4.82;;
52798;SDS011;38667;42.872;74.622;2022-09-12T02:52:41;20.55;;;4.10;;
52798;SDS011;38667;42.872;74.622;2022-09-12T02:55:10;24.77;;;4.00;;
52798;SDS011;38667;42.872;74.622;2022-09-12T02:57:37;35.42;;;4.72;;
52798;SDS011;38667;42.872;74.622;2022-09-12T03:00:04;30.92;;;6.13;;
52798;SDS011;38667;42.872;74.622;2022-09-12T03:02:35;32.92;;;5.72;;
52798;SDS011;38667;42.872;74.622;2022-09-12T03:05:12;36.90;;;5.82;;
52798;SDS011;38667;42.872;74.622;2022-09-12T03:07:56;32.33;;;6.15;;
52798;SDS011;38667;42.872;74.622;2022-09-12T03:10:41;35.78;;;6.50;;
52798;SDS011;38667;42.872;74.622;2022-09-12T03:13:24;42.20;;;6.43;;
52798;SDS011;38667;42.872;74.622;2022-09-12T03:16:03;28.25;;;7.07;;
52798;SDS011;38667;42.872;74.622;2022-09-12T03:18:39;37.70;;;6.63;;
52798;SDS011;38667;42.872;74.622;2022-09-12T03:21:17;37.80;;;7.53;;
52798;SDS011;38667;42.872;74.622;2022-09-12T03:23:52;35.38;;;6.95;;
52798;SDS011;38667;42.872;74.622;2022-09-12T03:26:31;42.28;;;7.03;;
52798;SDS011;38667;42.872;74.622;2022-09-12T03:29:02;33.53;;;7.38;;
52798;SDS011;38667;42.872;74.622;2022-09-12T03:31:31;31.55;;;6.55;;
52798;SDS011;38667;42.872;74.622;2022-09-12T03:33:58;31.88;;;6.50;;
52798;SDS011;38667;42.872;74.622;2022-09-12T03:36:26;45.92;;;8.52;;
52798;SDS011;38667;42.872;74.622;2022-09-12T03:38:53;35.88;;;8.23;;
52798;SDS011;38667;42.872;74.622;2022-09-12T03:41:22;42.75;;;8.85;;
52798;SDS011;38667;42.872;74.622;2022-09-12T03:43:50;31.88;;;8.05;;
52798;SDS011;38667;42.872;74.622;2022-09-12T03:46:16;38.50;;;8.57;;
52798;SDS011;38667;42.872;74.622;2022-09-12T03:48:42;46.13;;;9.10;;
52798;SDS011;38667;42.872;74.622;2022-09-12T03:51:09;35.88;;;7.60;;
52798;SDS011;38667;42.872;74.622;2022-09-12T03:53:35;34.30;;;7.22;;
52798;SDS011;38667;42.872;74.622;2022-09-12T03:56:04;36.25;;;7.57;;
52798;SDS011;38667;42.872;74.622;2022-09-12T03:58:31;45.60;;;7.22;;
52798;SDS011;38667;42.872;74.622;2022-09-12T04:00:58;33.88;;;7.50;;
52798;SDS011;38667;42.872;74.622;2022-09-12T04:03:25;39.17;;;7.65;;
52798;SDS011;38667;42.872;74.622;2022-09-12T04:05:51;42.08;;;14.00;;
52798;SDS011;38667;42.872;74.622;2022-09-12T04:08:17;45.03;;;8.27;;
52798;SDS011;38667;42.872;74.622;2022-09-12T04:10:44;34.67;;;7.82;;
52798;SDS011;38667;42.872;74.622;2022-09-12T04:13:10;33.53;;;7.60;;
52798;SDS011;38667;42.872;74.622;2022-09-12T04:15:36;44.17;;;7.63;;
52798;SDS011;38667;42.872;74.622;2022-09-12T04:18:04;26.92;;;6.82;;
52798;SDS011;38667;42.872;74.622;2022-09-12T04:20:30;33.67;;;6.90;;
52798;SDS011;38667;42.872;74.622;2022-09-12T04:22:57;29.33;;;6.70;;
52798;SDS011;38667;42.872;74.622;2022-09-12T04:25:23;28.35;;;6.18;;
52798;SDS011;38667;42.872;74.622;2022-09-12T04:27:49;29.33;;;5.90;;
52798;SDS011;38667;42.872;74.622;2022-09-12T04:30:16;31.50;;;5.65;;
52798;SDS011;38667;42.872;74.622;2022-09-12T04:32:42;24.25;;;4.82;;
52798;SDS011;38667;42.872;74.622;2022-09-12T04:35:10;27.10;;;5.80;;
52798;SDS011;38667;42.872;74.622;2022-09-12T04:37:36;19.73;;;4.65;;
52798;SDS011;38667;42.872;74.622;2022-09-12T04:40:02;25.92;;;5.07;;
52798;SDS011;38667;42.872;74.622;2022-09-12T04:42:29;21.42;;;4.57;;
52798;SDS011;38667;42.872;74.622;2022-09-12T04:44:55;32.80;;;4.93;;
52798;SDS011;38667;42.872;74.622;2022-09-12T04:47:22;21.83;;;3.55;;
52798;SDS011;38667;42.872;74.622;2022-09-12T04:49:48;26.15;;;3.63;;
52798;SDS011;38667;42.872;74.622;2022-09-12T04:52:16;29.25;;;4.93;;
52798;SDS011;38667;42.872;74.622;2022-09-12T04:54:42;24.85;;;3.78;;
52798;SDS011;38667;42.872;74.622;2022-09-12T04:57:08;14.50;;;3.10;;
52798;SDS011;38667;42.872;74.622;2022-09-12T04:59:35;41.22;;;5.43;;
52798;SDS011;38667;42.872;74.622;2022-09-12T05:02:02;36.90;;;5.25;;
52798;SDS011;38667;42.872;74.622;2022-09-12T05:04:28;20.80;;;4.00;;
52798;SDS011;38667;42.872;74.622;2022-09-12T05:06:55;19.73;;;3.90;;
52798;SDS011;38667;42.872;74.622;2022-09-12T05:09:23;23.75;;;3.55;;
52798;SDS011;38667;42.872;74.622;2022-09-12T05:11:49;35.22;;;4.35;;
52798;SDS011;38667;42.872;74.622;2022-09-12T05:14:15;28.45;;;5.00;;
52798;SDS011;38667;42.872;74.622;2022-09-12T05:16:42;28.75;;;3.80;;
52798;SDS011;38667;42.872;74.622;2022-09-12T05:19:08;22.50;;;2.88;;
52798;SDS011;38667;42.872;74.622;2022-09-12T05:21:35;26.65;;;2.63;;
52798;SDS011;38667;42.872;74.622;2022-09-12T05:24:02;28.38;;;3.10;;
52798;SDS011;38667;42.872;74.622;2022-09-12T05:26:30;30.52;;;3.25;;
52798;SDS011;38667;42.872;74.622;2022-09-12T05:28:56;25.75;;;3.03;;
52798;SDS011;38667;42.872;74.622;2022-09-12T05:31:23;22.48;;;3.08;;
52798;SDS011;38667;42.872;74.622;2022-09-12T05:33:51;17.63;;;3.00;;
52798;SDS011;38667;42.872;74.622;2022-09-12T05:36:19;19.40;;;3.20;;
52798;SDS011;38667;42.872;74.622;2022-09-12T05:38:46;25.95;;;3.00;;
52798;SDS011;38667;42.872;74.622;2022-09-12T05:41:13;18.80;;;3.45;;
52798;SDS011;38667;42.872;74.622;2022-09-12T05:43:42;21.23;;;3.47;;
52798;SDS011;38667;42.872;74.622;2022-09-12T05:46:10;24.60;;;2.80;;
52798;SDS011;38667;42.872;74.622;2022-09-12T05:48:37;20.58;;;3.33;;
52798;SDS011;38667;42.872;74.622;2022-09-12T05:51:05;20.92;;;3.20;;
52798;SDS011;38667;42.872;74.622;2022-09-12T05:53:33;23.55;;;3.08;;
52798;SDS011;38667;42.872;74.622;2022-09-12T05:56:01;24.55;;;4.20;;
52798;SDS011;38667;42.872;74.622;2022-09-12T05:58:28;26.50;;;3.47;;
52798;SDS011;38667;42.872;74.622;2022-09-12T06:00:59;26.25;;;3.67;;
52798;SDS011;38667;42.872;74.622;2022-09-12T06:03:26;23.92;;;3.47;;
52798;SDS011;38667;42.872;74.622;2022-09-12T06:05:53;21.45;;;3.15;;
52798;SDS011;38667;42.872;74.622;2022-09-12T06:08:19;26.15;;;3.13;;
52798;SDS011;38667;42.872;74.622;2022-09-12T06:10:45;25.45;;;3.45;;
52798;SDS011;38667;42.872;74.622;2022-09-12T06:13:11;22.02;;;2.80;;
52798;SDS011;38667;42.872;74.622;2022-09-12T06:15:38;30.20;;;3.13;;
52798;SDS011;38667;42.872;74.622;2022-09-12T06:18:06;30.85;;;3.55;;
52798;SDS011;38667;42.872;74.622;2022-09-12T06:20:32;23.60;;;3.28;;
52798;SDS011;38667;42.872;74.622;2022-09-12T06:23:00;31.23;;;4.30;;
52798;SDS011;38667;42.872;74.622;2022-09-12T06:25:27;28.90;;;3.67;;
52798;SDS011;38667;42.872;74.622;2022-09-12T06:27:53;27.35;;;3.25;;
52798;SDS011;38667;42.872;74.622;2022-09-12T06:30:19;35.45;;;3.72;;
52798;SDS011;38667;42.872;74.622;2022-09-12T06:32:45;24.90;;;3.00;;
52798;SDS011;38667;42.872;74.622;2022-09-12T06:35:13;29.77;;;3.80;;
52798;SDS011;38667;42.872;74.622;2022-09-12T06:37:42;21.63;;;2.88;;
52798;SDS011;38667;42.872;74.622;2022-09-12T06:40:09;26.25;;;2.95;;
52798;SDS011;38667;42.872;74.622;2022-09-12T06:42:35;21.67;;;2.75;;
52798;SDS011;38667;42.872;74.622;2022-09-12T06:45:02;21.67;;;3.17;;
52798;SDS011;38667;42.872;74.622;2022-09-12T06:47:28;14.77;;;2.75;;
52798;SDS011;38667;42.872;74.622;2022-09-12T06:49:55;22.02;;;3.70;;
52798;SDS011;38667;42.872;74.622;2022-09-12T06:52:23;21.02;;;3.25;;
52798;SDS011;38667;42.872;74.622;2022-09-12T06:54:49;18.65;;;2.90;;
52798;SDS011;38667;42.872;74.622;2022-09-12T06:57:15;21.80;;;3.20;;
52798;SDS011;38667;42.872;74.622;2022-09-12T06:59:41;20.60;;;3.15;;
52798;SDS011;38667;42.872;74.622;2022-09-12T07:02:08;16.33;;;2.50;;
52798;SDS011;38667;42.872;74.622;2022-09-12T07:04:34;21.42;;;2.92;;
52798;SDS011;38667;42.872;74.622;2022-09-12T07:07:00;18.38;;;3.40;;
52798;SDS011;38667;42.872;74.622;2022-09-12T07:09:28;21.90;;;2.97;;
52798;SDS011;38667;42.872;74.622;2022-09-12T07:11:54;21.40;;;3.13;;
52798;SDS011;38667;42.872;74.622;2022-09-12T07:14:21;22.45;;;2.88;;
52798;SDS011;38667;42.872;74.622;2022-09-12T07:16:47;22.17;;;3.45;;
52798;SDS011;38667;42.872;74.622;2022-09-12T07:19:13;21.92;;;3.70;;
52798;SDS011;38667;42.872;74.622;2022-09-12T07:21:40;24.65;;;4.28;;
52798;SDS011;38667;42.872;74.622;2022-09-12T07:24:06;19.00;;;3.05;;
52798;SDS011;38667;42.872;74.622;2022-09-12T07:26:35;15.05;;;3.10;;
52798;SDS011;38667;42.872;74.622;2022-09-12T07:29:02;26.20;;;4.47;;
52798;SDS011;38667;42.872;74.622;2022-09-12T07:31:28;20.13;;;3.25;;
52798;SDS011;38667;42.872;74.622;2022-09-12T07:33:54;17.05;;;2.88;;
52798;SDS011;38667;42.872;74.622;2022-09-12T07:36:21;17.70;;;3.00;;
52798;SDS011;38667;42.872;74.622;2022-09-12T07:38:52;15.70;;;2.25;;
52798;SDS011;38667;42.872;74.622;2022-09-12T07:41:20;21.48;;;3.10;;
52798;SDS011;38667;42.872;74.622;2022-09-12T07:43:51;20.17;;;3.88;;
52798;SDS011;38667;42.872;74.622;2022-09-12T07:46:18;22.10;;;2.83;;
52798;SDS011;38667;42.872;74.622;2022-09-12T07:48:48;19.58;;;2.95;;
52798;SDS011;38667;42.872;74.622;2022-09-12T07:51:14;30.30;;;3.15;;
52798;SDS011;38667;42.872;74.622;2022-09-12T07:53:41;18.67;;;2.47;;
52798;SDS011;38667;42.872;74.622;2022-09-12T07:56:08;23.15;;;2.85;;
52798;SDS011;38667;42.872;74.622;2022-09-12T07:58:36;14.85;;;3.17;;
52798;SDS011;38667;42.872;74.622;2022-09-12T08:01:05;21.25;;;3.22;;
52798;SDS011;38667;42.872;74.622;2022-09-12T08:03:33;29.15;;;3.53;;
52798;SDS011;38667;42.872;74.622;2022-09-12T08:06:03;18.45;;;2.70;;
52798;SDS011;38667;42.872;74.622;2022-09-12T08:08:31;26.02;;;3.15;;
52798;SDS011;38667;42.872;74.622;2022-09-12T08:10:57;23.48;;;4.45;;
52798;SDS011;38667;42.872;74.622;2022-09-12T08:13:24;25.35;;;3.50;;
52798;SDS011;38667;42.872;74.622;2022-09-12T08:15:50;20.13;;;3.40;;
52798;SDS011;38667;42.872;74.622;2022-09-12T08:18:22;22.05;;;3.28;;
52798;SDS011;38667;42.872;74.622;2022-09-12T08:20:48;20.63;;;2.83;;
52798;SDS011;38667;42.872;74.622;2022-09-12T08:23:21;23.10;;;3.53;;
52798;SDS011;38667;42.872;74.622;2022-09-12T08:25:47;26.10;;;3.40;;
52798;SDS011;38667;42.872;74.622;2022-09-12T08:28:13;20.67;;;3.47;;
52798;SDS011;38667;42.872;74.622;2022-09-12T08:30:40;34.42;;;3.75;;
52798;SDS011;38667;42.872;74.622;2022-09-12T08:33:06;17.52;;;2.75;;
52798;SDS011;38667;42.872;74.622;2022-09-12T08:35:34;19.50;;;3.13;;
52798;SDS011;38667;42.872;74.622;2022-09-12T08:38:00;19.55;;;2.83;;
52798;SDS011;38667;42.872;74.622;2022-09-12T08:40:26;18.65;;;3.22;;
52798;SDS011;38667;42.872;74.622;2022-09-12T08:42:53;23.90;;;2.72;;
52798;SDS011;38667;42.872;74.622;2022-09-12T08:45:26;27.30;;;3.13;;
52798;SDS011;38667;42.872;74.622;2022-09-12T08:47:59;24.90;;;2.72;;
52798;SDS011;38667;42.872;74.622;2022-09-12T08:50:28;33.90;;;4.15;;
52798;SDS011;38667;42.872;74.622;2022-09-12T08:52:57;23.63;;;2.80;;
52798;SDS011;38667;42.872;74.622;2022-09-12T08:55:29;28.15;;;2.88;;
52798;SDS011;38667;42.872;74.622;2022-09-12T08:57:57;24.73;;;3.13;;
52798;SDS011;38667;42.872;74.622;2022-09-12T09:00:25;28.60;;;3.50;;
52798;SDS011;38667;42.872;74.622;2022-09-12T09:03:05;23.77;;;2.95;;
52798;SDS011;38667;42.872;74.622;2022-09-12T09:05:59;18.10;;;2.80;;
52798;SDS011;38667;42.872;74.622;2022-09-12T09:11:27;22.05;;;3.22;;
52798;SDS011;38667;42.872;74.622;2022-09-12T09:14:13;26.20;;;3.20;;
52798;SDS011;38667;42.872;74.622;2022-09-12T09:16:58;19.20;;;2.83;;
52798;SDS011;38667;42.872;74.622;2022-09-12T09:19:27;18.75;;;3.67;;
52798;SDS011;38667;42.872;74.622;2022-09-12T09:21:57;22.20;;;3.15;;
52798;SDS011;38667;42.872;74.622;2022-09-12T09:24:27;20.17;;;2.70;;
52798;SDS011;38667;42.872;74.622;2022-09-12T09:27:01;28.02;;;3.38;;
52798;SDS011;38667;42.872;74.622;2022-09-12T09:29:32;17.38;;;3.17;;
52798;SDS011;38667;42.872;74.622;2022-09-12T09:32:08;25.48;;;2.97;;
52798;SDS011;38667;42.872;74.622;2022-09-12T09:34:39;25.13;;;2.70;;
52798;SDS011;38667;42.872;74.622;2022-09-12T09:37:07;18.83;;;1.98;;
52798;SDS011;38667;42.872;74.622;2022-09-12T09:39:46;20.73;;;2.60;;
52798;SDS011;38667;42.872;74.622;2022-09-12T09:42:22;22.50;;;2.45;;
52798;SDS011;38667;42.872;74.622;2022-09-12T09:44:54;19.98;;;2.45;;
52798;SDS011;38667;42.872;74.622;2022-09-12T09:47:23;15.52;;;2.60;;
52798;SDS011;38667;42.872;74.622;2022-09-12T09:49:50;21.08;;;2.85;;
52798;SDS011;38667;42.872;74.622;2022-09-12T09:52:18;22.35;;;3.42;;
52798;SDS011;38667;42.872;74.622;2022-09-12T09:54:56;22.08;;;3.08;;
52798;SDS011;38667;42.872;74.622;2022-09-12T09:57:40;26.10;;;3.28;;
52798;SDS011;38667;42.872;74.622;2022-09-12T10:00:24;19.13;;;3.00;;
52798;SDS011;38667;42.872;74.622;2022-09-12T10:02:59;33.90;;;3.08;;
52798;SDS011;38667;42.872;74.622;2022-09-12T10:05:32;22.73;;;2.92;;
52798;SDS011;38667;42.872;74.622;2022-09-12T10:08:00;22.38;;;3.42;;
52798;SDS011;38667;42.872;74.622;2022-09-12T10:10:29;24.67;;;3.42;;
52798;SDS011;38667;42.872;74.622;2022-09-12T10:13:05;14.88;;;2.28;;
52798;SDS011;38667;42.872;74.622;2022-09-12T10:15:33;19.90;;;2.83;;
52798;SDS011;38667;42.872;74.622;2022-09-12T10:17:59;25.95;;;3.70;;
52798;SDS011;38667;42.872;74.622;2022-09-12T10:20:30;28.17;;;3.90;;
52798;SDS011;38667;42.872;74.622;2022-09-12T10:23:00;28.05;;;3.60;;
52798;SDS011;38667;42.872;74.622;2022-09-12T10:25:30;26.73;;;3.20;;
52798;SDS011;38667;42.872;74.622;2022-09-12T10:27:57;32.53;;;2.88;;
52798;SDS011;38667;42.872;74.622;2022-09-12T10:30:25;28.88;;;3.42;;
52798;SDS011;38667;42.872;74.622;2022-09-12T10:32:52;31.63;;;2.90;;
52798;SDS011;38667;42.872;74.622;2022-09-12T10:35:21;23.70;;;3.95;;
52798;SDS011;38667;42.872;74.622;2022-09-12T10:37:52;16.42;;;3.10;;
52798;SDS011;38667;42.872;74.622;2022-09-12T10:40:22;24.27;;;4.07;;
52798;SDS011;38667;42.872;74.622;2022-09-12T10:42:51;21.65;;;3.10;;
52798;SDS011;38667;42.872;74.622;2022-09-12T10:45:28;42.35;;;5.82;;
52798;SDS011;38667;42.872;74.622;2022-09-12T10:47:57;26.00;;;3.50;;
52798;SDS011;38667;42.872;74.622;2022-09-12T10:50:25;28.20;;;3.15;;
52798;SDS011;38667;42.872;74.622;2022-09-12T10:52:54;24.20;;;3.03;;
52798;SDS011;38667;42.872;74.622;2022-09-12T10:55:38;24.65;;;3.58;;
52798;SDS011;38667;42.872;74.622;2022-09-12T10:58:15;23.25;;;3.13;;
52798;SDS011;38667;42.872;74.622;2022-09-12T11:00:50;15.80;;;3.28;;
52798;SDS011;38667;42.872;74.622;2022-09-12T11:03:31;19.63;;;3.33;;
52798;SDS011;38667;42.872;74.622;2022-09-12T11:06:10;18.20;;;3.33;;
52798;SDS011;38667;42.872;74.622;2022-09-12T11:24:13;16.30;;;3.35;;
52798;SDS011;38667;42.872;74.622;2022-09-12T11:26:50;25.55;;;3.67;;
52798;SDS011;38667;42.872;74.622;2022-09-12T11:29:28;22.95;;;3.17;;
52798;SDS011;38667;42.872;74.622;2022-09-12T11:32:22;28.20;;;3.53;;
52798;SDS011;38667;42.872;74.622;2022-09-12T11:35:08;17.08;;;3.67;;
52798;SDS011;38667;42.872;74.622;2022-09-12T11:37:48;21.73;;;4.38;;
52798;SDS011;38667;42.872;74.622;2022-09-12T11:40:36;37.88;;;4.28;;
52798;SDS011;38667;42.872;74.622;2022-09-12T11:43:06;16.92;;;3.03;;
52798;SDS011;38667;42.872;74.622;2022-09-12T11:45:46;23.90;;;3.58;;
52798;SDS011;38667;42.872;74.622;2022-09-12T11:48:14;24.27;;;3.70;;
52798;SDS011;38667;42.872;74.622;2022-09-12T11:50:46;23.38;;;4.78;;
52798;SDS011;38667;42.872;74.622;2022-09-12T11:53:16;27.70;;;4.72;;
52798;SDS011;38667;42.872;74.622;2022-09-12T11:55:49;26.85;;;4.13;;
52798;SDS011;38667;42.872;74.622;2022-09-12T11:58:20;24.63;;;4.03;;
52798;SDS011;38667;42.872;74.622;2022-09-12T12:00:50;20.98;;;3.67;;
52798;SDS011;38667;42.872;74.622;2022-09-12T12:03:19;27.27;;;4.75;;
52798;SDS011;38667;42.872;74.622;2022-09-12T12:05:53;21.38;;;3.83;;
52798;SDS011;38667;42.872;74.622;2022-09-12T12:08:25;27.58;;;4.10;;
52798;SDS011;38667;42.872;74.622;2022-09-12T12:10:54;27.35;;;3.58;;
52798;SDS011;38667;42.872;74.622;2022-09-12T12:13:24;30.38;;;3.83;;
52798;SDS011;38667;42.872;74.622;2022-09-12T12:15:54;21.45;;;4.20;;
52798;SDS011;38667;42.872;74.622;2022-09-12T12:18:23;26.33;;;3.60;;
52798;SDS011;38667;42.872;74.622;2022-09-12T12:20:51;27.40;;;3.95;;
52798;SDS011;38667;42.872;74.622;2022-09-12T12:23:25;22.77;;;3.17;;
52798;SDS011;38667;42.872;74.622;2022-09-12T12:25:53;24.65;;;4.00;;
52798;SDS011;38667;42.872;74.622;2022-09-12T12:31:24;21.65;;;4.25;;
52798;SDS011;38667;42.872;74.622;2022-09-12T12:36:51;18.20;;;3.55;;
52798;SDS011;38667;42.872;74.622;2022-09-12T12:48:22;24.75;;;4.22;;
52798;SDS011;38667;42.872;74.622;2022-09-12T12:50:49;24.30;;;3.63;;
52798;SDS011;38667;42.872;74.622;2022-09-12T12:53:16;22.73;;;4.35;;
52798;SDS011;38667;42.872;74.622;2022-09-12T12:55:46;27.63;;;4.38;;
52798;SDS011;38667;42.872;74.622;2022-09-12T12:58:22;26.42;;;3.65;;
52798;SDS011;38667;42.872;74.622;2022-09-12T13:01:04;31.40;;;5.50;;
52798;SDS011;38667;42.872;74.622;2022-09-12T13:03:36;18.73;;;3.70;;
52798;SDS011;38667;42.872;74.622;2022-09-12T13:06:07;18.02;;;4.20;;
52798;SDS011;38667;42.872;74.622;2022-09-12T13:08:54;25.75;;;3.85;;
52798;SDS011;38667;42.872;74.622;2022-09-12T13:11:26;20.38;;;4.35;;
52798;SDS011;38667;42.872;74.622;2022-09-12T13:13:56;26.08;;;3.40;;
52798;SDS011;38667;42.872;74.622;2022-09-12T13:16:33;33.97;;;4.00;;
52798;SDS011;38667;42.872;74.622;2022-09-12T13:19:01;23.52;;;4.30;;
52798;SDS011;38667;42.872;74.622;2022-09-12T13:21:30;20.67;;;3.63;;
52798;SDS011;38667;42.872;74.622;2022-09-12T13:24:00;25.90;;;5.18;;
52798;SDS011;38667;42.872;74.622;2022-09-12T13:26:31;27.23;;;4.90;;
52798;SDS011;38667;42.872;74.622;2022-09-12T13:29:13;30.95;;;5.32;;
52798;SDS011;38667;42.872;74.622;2022-09-12T13:31:43;29.65;;;4.38;;
52798;SDS011;38667;42.872;74.622;2022-09-12T13:34:12;24.08;;;3.83;;
52798;SDS011;38667;42.872;74.622;2022-09-12T13:37:10;22.67;;;4.07;;
52798;SDS011;38667;42.872;74.622;2022-09-12T13:39:53;25.48;;;4.65;;
52798;SDS011;38667;42.872;74.622;2022-09-12T13:42:38;24.35;;;4.38;;
52798;SDS011;38667;42.872;74.622;2022-09-12T13:45:06;31.98;;;5.32;;
52798;SDS011;38667;42.872;74.622;2022-09-12T13:47:40;28.67;;;4.40;;
52798;SDS011;38667;42.872;74.622;2022-09-12T13:50:11;23.00;;;3.95;;
52798;SDS011;38667;42.872;74.622;2022-09-12T13:52:41;25.60;;;4.35;;
52798;SDS011;38667;42.872;74.622;2022-09-12T13:55:17;22.65;;;4.75;;
52798;SDS011;38667;42.872;74.622;2022-09-12T13:57:58;23.58;;;4.22;;
52798;SDS011;38667;42.872;74.622;2022-09-12T14:00:26;28.95;;;5.43;;
52798;SDS011;38667;42.872;74.622;2022-09-12T14:02:55;29.70;;;6.35;;
52798;SDS011;38667;42.872;74.622;2022-09-12T14:05:22;38.53;;;5.47;;
52798;SDS011;38667;42.872;74.622;2022-09-12T14:07:51;30.67;;;5.07;;
52798;SDS011;38667;42.872;74.622;2022-09-12T14:10:24;27.25;;;5.40;;
52798;SDS011;38667;42.872;74.622;2022-09-12T14:12:53;33.30;;;5.18;;
52798;SDS011;38667;42.872;74.622;2022-09-12T14:15:21;29.30;;;5.78;;
52798;SDS011;38667;42.872;74.622;2022-09-12T14:17:50;20.05;;;5.15;;
52798;SDS011;38667;42.872;74.622;2022-09-12T14:20:19;24.33;;;5.03;;
52798;SDS011;38667;42.872;74.622;2022-09-12T14:22:46;21.95;;;5.45;;
52798;SDS011;38667;42.872;74.622;2022-09-12T14:25:14;21.85;;;4.93;;
52798;SDS011;38667;42.872;74.622;2022-09-12T14:27:43;28.13;;;5.90;;
52798;SDS011;38667;42.872;74.622;2022-09-12T14:30:19;21.23;;;5.05;;
52798;SDS011;38667;42.872;74.622;2022-09-12T14:33:00;20.92;;;5.70;;
52798;SDS011;38667;42.872;74.622;2022-09-12T14:35:30;39.22;;;6.80;;
52798;SDS011;38667;42.872;74.622;2022-09-12T14:37:56;31.83;;;6.10;;
52798;SDS011;38667;42.872;74.622;2022-09-12T14:40:36;23.77;;;5.95;;
52798;SDS011;38667;42.872;74.622;2022-09-12T14:43:13;27.23;;;6.88;;
52798;SDS011;38667;42.872;74.622;2022-09-12T14:45:43;30.85;;;8.70;;
52798;SDS011;38667;42.872;74.622;2022-09-12T14:48:18;36.00;;;9.07;;
52798;SDS011;38667;42.872;74.622;2022-09-12T14:50:48;51.45;;;12.48;;
52798;SDS011;38667;42.872;74.622;2022-09-12T14:53:20;46.70;;;14.68;;
52798;SDS011;38667;42.872;74.622;2022-09-12T14:55:56;41.08;;;11.90;;
52798;SDS011;38667;42.872;74.622;2022-09-12T14:58:29;40.55;;;12.30;;
52798;SDS011;38667;42.872;74.622;2022-09-12T15:00:57;46.08;;;12.13;;
52798;SDS011;38667;42.872;74.622;2022-09-12T15:03:26;48.85;;;10.15;;
52798;SDS011;38667;42.872;74.622;2022-09-12T15:05:55;33.95;;;10.57;;
52798;SDS011;38667;42.872;74.622;2022-09-12T15:08:22;31.58;;;9.60;;
52798;SDS011;38667;42.872;74.622;2022-09-12T15:10:49;38.10;;;9.65;;
52798;SDS011;38667;42.872;74.622;2022-09-12T15:13:20;33.85;;;8.75;;
52798;SDS011;38667;42.872;74.622;2022-09-12T15:15:48;31.65;;;9.82;;
52798;SDS011;38667;42.872;74.622;2022-09-12T15:18:16;41.33;;;11.23;;
52798;SDS011;38667;42.872;74.622;2022-09-12T15:20:43;37.08;;;11.02;;
52798;SDS011;38667;42.872;74.622;2022-09-12T15:23:14;44.25;;;12.95;;